East Davis - southern half: Past 24 Hour Conditions

 

Resolute Airport

02:00 AM CDT 23 April 2014
This table is a summary of hourly weather conditions for the past 24 hours.
Date / Time
(CDT)
Wind(knots) Conditions Visibility(km) Pressure(kPa) Air tempC) Relative humidity(%) Dew pointC) Wind Chill
23 April 2014
2:00 W 12 Light Snow 8 101.7 -16 80 -19 -26
1:00 W 6 Light Snow 6 101.7 -16 76 -20 -23
0:00 W 7 Light Snow 3 101.8 -16 77 -20 -24
22 April 2014
23:00 NW 4 Light Snow 6 101.8 -17 75 -21 -23
22:00 WNW 5 Light Snow 19 101.8 -17 76 -20 -23
21:00 NW 4 Light Snow 19 101.9 -15 78 -18 -20
20:00 NW 6 Light Snow 16 101.9 -17 75 -20 -24
19:00 WNW 6 Light Snow 24 101.9 -16 76 -20 -23
18:00 WNW 5 Mainly Sunny 24 101.9 -17 75 -20 -23
17:00 NNW 3 Sunny 24 101.9 -17 73 -21 -21
16:00 WNW 4 Light Snow 24 101.9 -18 75 -22 -24
15:00 N 3 Light Snow 19 102.0 -20 72 -24 -24
14:00 NNW 5 Mainly Sunny 19 101.9 -22 71 -25 -29
13:00 NNW 5 Ice Crystals 19 102.0 -22 71 -26 -29
12:00 NW 4 Ice Crystals 24 102.0 -23 70 -27 -30
11:00 NNW 5 Ice Crystals 24 102.0 -23 71 -27 -31
10:00 NW 3 Ice Crystals 24 101.9 -24 70 -27 -28
9:00 NNW 3 Ice Crystals 24 102.0 -23 71 -27 -28
8:00 NNW 4 Ice Crystals 24 102.0 -24 70 -28 -31
7:00 NNW 7 Ice Crystals 16 102.0 -25 71 -29 -34
6:00 NNW 7 Light Snow 10 102.0 -25 68 -29 -34
5:00 NW 6 Partly Cloudy 24 102.0 -24 67 -29 -33
4:00 NNW 4 Mainly Sunny 24 102.1 -24 70 -27 -30
3:00 W 4 Mainly Clear 24 102.1 -23 70 -27 -30
2:00 WNW 4 Mostly Cloudy 24 102.1 -23 70 -27 -29
 
Map of Arctic - Eastern Arctic marine weather areas Baker Lake Airport Chesterfield Inlet Airport Coral Harbour Airport Gjoa Haven Airport Kugaaruk Airport Rankin Inlet Airport Shepherd Bay Airport Whale Cove Airport Arctic Bay Brevoort Island Qikiqtarjuaq Airport Cape Dorset Airport Cape Dyer Cape Hooper Clyde Airport Grise Fiord Airport Hall Beach Airport Igloolik Airport Iqaluit Airport Longstaff Bluff Pangnirtung Airport Pond Inlet Airport Repulse Bay Airport Resolute Airport Resolution Island Rowley Island Airport Taloyoak Airport Wager Bay Akulivik Airport Ivujivik Airport Puvirnituq Airport Kangiqsujuaq Airport Kangirsuk Airport Quaqtaq Airport Tasiujaq Airport Cape Kakkiviak Cape Kiglapait Nain Airport Saglek Cape Mercy Kimmirut Airport Aupaluk Airport Salluit Airport Kangiqsualujjuaq Airport Fort Ross
Legend: buoyBuoy land stationLand Station